sensor_id;sensor_type;location;lat;lon;timestamp;temperature;humidity
14908;DHT22;7545;52.092;7.006;2023-02-03T00:00:52;8.50;99.90
14908;DHT22;7545;52.092;7.006;2023-02-03T00:03:17;8.40;99.90
14908;DHT22;7545;52.092;7.006;2023-02-03T00:05:43;8.50;99.90
14908;DHT22;7545;52.092;7.006;2023-02-03T00:08:09;8.50;99.90
14908;DHT22;7545;52.092;7.006;2023-02-03T00:10:36;8.50;99.90
14908;DHT22;7545;52.092;7.006;2023-02-03T00:13:03;8.50;99.90
14908;DHT22;7545;52.092;7.006;2023-02-03T00:15:29;8.50;99.90
14908;DHT22;7545;52.092;7.006;2023-02-03T00:17:54;8.50;99.90
14908;DHT22;7545;52.092;7.006;2023-02-03T00:20:20;8.50;99.90
14908;DHT22;7545;52.092;7.006;2023-02-03T00:22:46;8.50;99.90
14908;DHT22;7545;52.092;7.006;2023-02-03T00:25:12;8.50;99.90
14908;DHT22;7545;52.092;7.006;2023-02-03T00:27:38;8.50;99.90
14908;DHT22;7545;52.092;7.006;2023-02-03T00:30:04;8.50;99.90
14908;DHT22;7545;52.092;7.006;2023-02-03T00:32:30;8.50;99.90
14908;DHT22;7545;52.092;7.006;2023-02-03T00:34:56;8.50;99.90
14908;DHT22;7545;52.092;7.006;2023-02-03T00:37:21;8.50;99.90
14908;DHT22;7545;52.092;7.006;2023-02-03T00:39:48;8.50;99.90
14908;DHT22;7545;52.092;7.006;2023-02-03T00:42:14;8.50;99.90
14908;DHT22;7545;52.092;7.006;2023-02-03T00:44:39;8.50;99.90
14908;DHT22;7545;52.092;7.006;2023-02-03T00:47:05;8.50;99.90
14908;DHT22;7545;52.092;7.006;2023-02-03T00:49:31;8.50;99.90
14908;DHT22;7545;52.092;7.006;2023-02-03T00:51:56;8.50;99.90
14908;DHT22;7545;52.092;7.006;2023-02-03T00:54:22;8.50;99.90
14908;DHT22;7545;52.092;7.006;2023-02-03T00:56:47;8.50;99.90
14908;DHT22;7545;52.092;7.006;2023-02-03T00:59:13;8.60;99.90
14908;DHT22;7545;52.092;7.006;2023-02-03T01:01:38;8.60;99.90
14908;DHT22;7545;52.092;7.006;2023-02-03T01:04:04;8.50;99.90
14908;DHT22;7545;52.092;7.006;2023-02-03T01:06:30;8.50;99.90
14908;DHT22;7545;52.092;7.006;2023-02-03T01:08:55;8.50;99.90
14908;DHT22;7545;52.092;7.006;2023-02-03T01:11:23;8.50;99.90
14908;DHT22;7545;52.092;7.006;2023-02-03T01:13:50;8.50;99.90
14908;DHT22;7545;52.092;7.006;2023-02-03T01:16:18;8.50;99.90
14908;DHT22;7545;52.092;7.006;2023-02-03T01:18:44;8.50;99.90
14908;DHT22;7545;52.092;7.006;2023-02-03T01:21:15;8.50;99.90
14908;DHT22;7545;52.092;7.006;2023-02-03T01:23:42;8.60;99.90
14908;DHT22;7545;52.092;7.006;2023-02-03T01:26:10;8.50;99.90
14908;DHT22;7545;52.092;7.006;2023-02-03T01:28:37;8.60;99.90
14908;DHT22;7545;52.092;7.006;2023-02-03T01:33:38;8.60;99.90
14908;DHT22;7545;52.092;7.006;2023-02-03T01:36:08;8.60;99.90
14908;DHT22;7545;52.092;7.006;2023-02-03T01:38:34;8.60;99.90
14908;DHT22;7545;52.092;7.006;2023-02-03T01:41:00;8.60;99.90
14908;DHT22;7545;52.092;7.006;2023-02-03T01:43:33;8.60;99.90
14908;DHT22;7545;52.092;7.006;2023-02-03T01:46:05;8.60;99.90
14908;DHT22;7545;52.092;7.006;2023-02-03T01:48:32;8.60;99.90
14908;DHT22;7545;52.092;7.006;2023-02-03T01:51:01;8.60;99.90
14908;DHT22;7545;52.092;7.006;2023-02-03T01:53:28;8.60;99.90
14908;DHT22;7545;52.092;7.006;2023-02-03T01:55:54;8.60;99.90
14908;DHT22;7545;52.092;7.006;2023-02-03T01:58:24;8.60;99.90
14908;DHT22;7545;52.092;7.006;2023-02-03T02:00:51;8.60;99.90
14908;DHT22;7545;52.092;7.006;2023-02-03T02:03:20;8.60;99.90
14908;DHT22;7545;52.092;7.006;2023-02-03T02:05:57;8.60;99.90
14908;DHT22;7545;52.092;7.006;2023-02-03T02:08:25;8.60;99.90
14908;DHT22;7545;52.092;7.006;2023-02-03T02:10:51;8.60;99.90
14908;DHT22;7545;52.092;7.006;2023-02-03T02:13:18;8.60;99.90
14908;DHT22;7545;52.092;7.006;2023-02-03T02:15:53;8.60;99.90
14908;DHT22;7545;52.092;7.006;2023-02-03T02:40:49;8.60;99.90
14908;DHT22;7545;52.092;7.006;2023-02-03T02:45:52;8.60;99.90
14908;DHT22;7545;52.092;7.006;2023-02-03T02:50:49;8.60;99.90
14908;DHT22;7545;52.092;7.006;2023-02-03T02:53:19;8.60;99.90
14908;DHT22;7545;52.092;7.006;2023-02-03T02:55:45;8.60;99.90
14908;DHT22;7545;52.092;7.006;2023-02-03T02:58:14;8.60;99.90
14908;DHT22;7545;52.092;7.006;2023-02-03T03:00:42;8.60;99.90
14908;DHT22;7545;52.092;7.006;2023-02-03T03:03:29;8.60;99.90
14908;DHT22;7545;52.092;7.006;2023-02-03T03:06:01;8.60;99.90
14908;DHT22;7545;52.092;7.006;2023-02-03T03:08:54;8.60;99.90
14908;DHT22;7545;52.092;7.006;2023-02-03T03:11:23;8.60;99.90
14908;DHT22;7545;52.092;7.006;2023-02-03T03:13:52;8.60;99.90
14908;DHT22;7545;52.092;7.006;2023-02-03T03:16:24;8.60;99.90
14908;DHT22;7545;52.092;7.006;2023-02-03T03:19:16;8.60;99.90
14908;DHT22;7545;52.092;7.006;2023-02-03T03:21:44;8.60;99.90
14908;DHT22;7545;52.092;7.006;2023-02-03T03:24:16;8.60;99.90
14908;DHT22;7545;52.092;7.006;2023-02-03T03:26:49;8.60;99.90
14908;DHT22;7545;52.092;7.006;2023-02-03T03:29:25;8.60;99.90
14908;DHT22;7545;52.092;7.006;2023-02-03T03:31:53;8.60;99.90
14908;DHT22;7545;52.092;7.006;2023-02-03T03:34:19;8.60;99.90
14908;DHT22;7545;52.092;7.006;2023-02-03T03:39:33;8.70;99.90
14908;DHT22;7545;52.092;7.006;2023-02-03T03:42:07;8.60;99.90
14908;DHT22;7545;52.092;7.006;2023-02-03T03:44:43;8.60;99.90
14908;DHT22;7545;52.092;7.006;2023-02-03T03:49:43;8.60;99.90
14908;DHT22;7545;52.092;7.006;2023-02-03T03:52:13;8.60;99.90
14908;DHT22;7545;52.092;7.006;2023-02-03T03:54:41;8.60;99.90
14908;DHT22;7545;52.092;7.006;2023-02-03T03:59:40;8.70;99.90
14908;DHT22;7545;52.092;7.006;2023-02-03T04:02:09;8.70;99.90
14908;DHT22;7545;52.092;7.006;2023-02-03T04:04:37;8.70;99.90
14908;DHT22;7545;52.092;7.006;2023-02-03T04:07:04;8.70;99.90
14908;DHT22;7545;52.092;7.006;2023-02-03T04:09:29;8.70;99.90
14908;DHT22;7545;52.092;7.006;2023-02-03T04:11:55;8.60;99.90
14908;DHT22;7545;52.092;7.006;2023-02-03T04:14:33;8.70;99.90
14908;DHT22;7545;52.092;7.006;2023-02-03T04:17:00;8.70;99.90
14908;DHT22;7545;52.092;7.006;2023-02-03T04:19:26;8.70;99.90
14908;DHT22;7545;52.092;7.006;2023-02-03T04:21:52;8.70;99.90
14908;DHT22;7545;52.092;7.006;2023-02-03T04:24:17;8.70;99.90
14908;DHT22;7545;52.092;7.006;2023-02-03T04:26:43;8.70;99.90
14908;DHT22;7545;52.092;7.006;2023-02-03T04:29:09;8.70;99.90
14908;DHT22;7545;52.092;7.006;2023-02-03T04:31:34;8.70;99.90
14908;DHT22;7545;52.092;7.006;2023-02-03T04:34:00;8.80;99.90
14908;DHT22;7545;52.092;7.006;2023-02-03T04:36:26;8.70;99.90
14908;DHT22;7545;52.092;7.006;2023-02-03T04:38:52;8.70;99.90
14908;DHT22;7545;52.092;7.006;2023-02-03T04:41:17;8.70;99.90
14908;DHT22;7545;52.092;7.006;2023-02-03T04:43:43;8.70;99.90
14908;DHT22;7545;52.092;7.006;2023-02-03T04:46:08;8.70;99.90
14908;DHT22;7545;52.092;7.006;2023-02-03T04:48:35;8.70;99.90
14908;DHT22;7545;52.092;7.006;2023-02-03T04:51:05;8.70;99.90
14908;DHT22;7545;52.092;7.006;2023-02-03T04:53:31;8.80;99.90
14908;DHT22;7545;52.092;7.006;2023-02-03T04:55:57;8.70;99.90
14908;DHT22;7545;52.092;7.006;2023-02-03T04:58:23;8.80;99.90
14908;DHT22;7545;52.092;7.006;2023-02-03T05:00:50;8.80;99.90
14908;DHT22;7545;52.092;7.006;2023-02-03T05:03:16;8.80;99.90
14908;DHT22;7545;52.092;7.006;2023-02-03T05:05:41;8.70;99.90
14908;DHT22;7545;52.092;7.006;2023-02-03T05:08:07;8.70;99.90
14908;DHT22;7545;52.092;7.006;2023-02-03T05:10:33;8.70;99.90
14908;DHT22;7545;52.092;7.006;2023-02-03T05:12:58;8.80;99.90
14908;DHT22;7545;52.092;7.006;2023-02-03T05:15:24;8.80;99.90
14908;DHT22;7545;52.092;7.006;2023-02-03T05:17:53;8.80;99.90
14908;DHT22;7545;52.092;7.006;2023-02-03T05:20:20;8.80;99.90
14908;DHT22;7545;52.092;7.006;2023-02-03T05:22:46;8.80;99.90
14908;DHT22;7545;52.092;7.006;2023-02-03T05:25:11;8.80;99.90
14908;DHT22;7545;52.092;7.006;2023-02-03T05:27:38;8.80;99.90
14908;DHT22;7545;52.092;7.006;2023-02-03T05:30:05;8.90;99.90
14908;DHT22;7545;52.092;7.006;2023-02-03T05:32:31;8.90;99.90
14908;DHT22;7545;52.092;7.006;2023-02-03T05:34:56;8.90;99.90
14908;DHT22;7545;52.092;7.006;2023-02-03T05:37:22;8.90;99.90
14908;DHT22;7545;52.092;7.006;2023-02-03T05:39:48;8.90;99.90
14908;DHT22;7545;52.092;7.006;2023-02-03T05:42:13;8.90;99.90
14908;DHT22;7545;52.092;7.006;2023-02-03T05:44:39;8.80;99.90
14908;DHT22;7545;52.092;7.006;2023-02-03T05:47:05;8.80;99.90
14908;DHT22;7545;52.092;7.006;2023-02-03T05:49:31;8.90;99.90
14908;DHT22;7545;52.092;7.006;2023-02-03T05:51:56;8.80;99.90
14908;DHT22;7545;52.092;7.006;2023-02-03T05:54:22;8.90;99.90
14908;DHT22;7545;52.092;7.006;2023-02-03T05:56:48;8.90;99.90
14908;DHT22;7545;52.092;7.006;2023-02-03T05:59:13;8.90;99.90
14908;DHT22;7545;52.092;7.006;2023-02-03T06:01:39;8.90;99.90
14908;DHT22;7545;52.092;7.006;2023-02-03T06:04:05;8.90;99.90
14908;DHT22;7545;52.092;7.006;2023-02-03T06:06:31;8.90;99.90
14908;DHT22;7545;52.092;7.006;2023-02-03T06:09:03;8.90;99.90
14908;DHT22;7545;52.092;7.006;2023-02-03T06:11:29;8.90;99.90
14908;DHT22;7545;52.092;7.006;2023-02-03T06:13:56;8.90;99.90
14908;DHT22;7545;52.092;7.006;2023-02-03T06:16:23;8.90;99.90
14908;DHT22;7545;52.092;7.006;2023-02-03T06:18:50;8.90;99.90
14908;DHT22;7545;52.092;7.006;2023-02-03T06:21:16;8.90;99.90
14908;DHT22;7545;52.092;7.006;2023-02-03T06:23:42;8.90;99.90
14908;DHT22;7545;52.092;7.006;2023-02-03T06:26:08;8.90;99.90
14908;DHT22;7545;52.092;7.006;2023-02-03T06:28:33;8.90;99.90
14908;DHT22;7545;52.092;7.006;2023-02-03T06:30:59;8.90;99.90
14908;DHT22;7545;52.092;7.006;2023-02-03T06:33:25;8.90;99.90
14908;DHT22;7545;52.092;7.006;2023-02-03T06:35:52;8.90;99.90
14908;DHT22;7545;52.092;7.006;2023-02-03T06:38:17;9.00;99.90
14908;DHT22;7545;52.092;7.006;2023-02-03T06:40:45;8.90;99.90
14908;DHT22;7545;52.092;7.006;2023-02-03T06:43:11;9.00;99.90
14908;DHT22;7545;52.092;7.006;2023-02-03T06:45:37;9.00;99.90
14908;DHT22;7545;52.092;7.006;2023-02-03T06:48:03;9.00;99.90
14908;DHT22;7545;52.092;7.006;2023-02-03T06:50:28;9.00;99.90
14908;DHT22;7545;52.092;7.006;2023-02-03T06:52:54;9.00;99.90
14908;DHT22;7545;52.092;7.006;2023-02-03T06:55:20;9.00;99.90
14908;DHT22;7545;52.092;7.006;2023-02-03T06:57:47;9.00;99.90
14908;DHT22;7545;52.092;7.006;2023-02-03T07:00:14;9.00;99.90
14908;DHT22;7545;52.092;7.006;2023-02-03T07:02:40;9.00;99.90
14908;DHT22;7545;52.092;7.006;2023-02-03T07:05:06;9.00;99.90
14908;DHT22;7545;52.092;7.006;2023-02-03T07:07:32;9.00;99.90
14908;DHT22;7545;52.092;7.006;2023-02-03T07:10:01;9.00;99.90
14908;DHT22;7545;52.092;7.006;2023-02-03T07:12:27;9.00;99.90
14908;DHT22;7545;52.092;7.006;2023-02-03T07:14:53;9.00;99.90
14908;DHT22;7545;52.092;7.006;2023-02-03T07:17:18;9.00;99.90
14908;DHT22;7545;52.092;7.006;2023-02-03T07:19:44;9.00;99.90
14908;DHT22;7545;52.092;7.006;2023-02-03T07:22:10;9.00;99.90
14908;DHT22;7545;52.092;7.006;2023-02-03T07:24:36;9.00;99.90
14908;DHT22;7545;52.092;7.006;2023-02-03T07:27:01;9.00;99.90
14908;DHT22;7545;52.092;7.006;2023-02-03T07:29:27;9.00;99.90
14908;DHT22;7545;52.092;7.006;2023-02-03T07:31:53;9.00;99.90
14908;DHT22;7545;52.092;7.006;2023-02-03T07:34:18;9.00;99.90
14908;DHT22;7545;52.092;7.006;2023-02-03T07:36:44;9.00;99.90
14908;DHT22;7545;52.092;7.006;2023-02-03T07:39:10;9.00;99.90
14908;DHT22;7545;52.092;7.006;2023-02-03T07:41:35;9.00;99.90
14908;DHT22;7545;52.092;7.006;2023-02-03T07:44:01;9.00;99.90
14908;DHT22;7545;52.092;7.006;2023-02-03T07:46:27;9.00;99.90
14908;DHT22;7545;52.092;7.006;2023-02-03T07:48:52;9.00;99.90
14908;DHT22;7545;52.092;7.006;2023-02-03T07:51:18;9.00;99.90
14908;DHT22;7545;52.092;7.006;2023-02-03T07:53:44;9.00;99.90
14908;DHT22;7545;52.092;7.006;2023-02-03T07:56:10;9.00;99.90
14908;DHT22;7545;52.092;7.006;2023-02-03T07:58:36;9.00;99.90
14908;DHT22;7545;52.092;7.006;2023-02-03T08:01:10;9.00;99.90
14908;DHT22;7545;52.092;7.006;2023-02-03T08:03:35;9.00;99.90
14908;DHT22;7545;52.092;7.006;2023-02-03T08:06:01;9.00;99.90
14908;DHT22;7545;52.092;7.006;2023-02-03T08:08:27;9.00;99.90
14908;DHT22;7545;52.092;7.006;2023-02-03T08:10:54;9.00;99.90
14908;DHT22;7545;52.092;7.006;2023-02-03T08:13:20;9.00;99.90
14908;DHT22;7545;52.092;7.006;2023-02-03T08:15:46;9.10;99.90
14908;DHT22;7545;52.092;7.006;2023-02-03T08:18:12;9.10;99.90
14908;DHT22;7545;52.092;7.006;2023-02-03T08:20:38;9.10;99.90
14908;DHT22;7545;52.092;7.006;2023-02-03T08:23:04;9.10;99.90
14908;DHT22;7545;52.092;7.006;2023-02-03T08:25:29;9.10;99.90
14908;DHT22;7545;52.092;7.006;2023-02-03T08:27:55;9.10;99.90
14908;DHT22;7545;52.092;7.006;2023-02-03T08:30:21;9.10;99.90
14908;DHT22;7545;52.092;7.006;2023-02-03T08:32:47;9.10;99.90
14908;DHT22;7545;52.092;7.006;2023-02-03T08:35:12;9.10;99.90
14908;DHT22;7545;52.092;7.006;2023-02-03T08:37:38;9.10;99.90
14908;DHT22;7545;52.092;7.006;2023-02-03T08:40:04;9.00;99.90
14908;DHT22;7545;52.092;7.006;2023-02-03T08:42:30;9.00;99.90
14908;DHT22;7545;52.092;7.006;2023-02-03T08:44:56;9.10;99.90
14908;DHT22;7545;52.092;7.006;2023-02-03T08:47:22;9.10;99.90
14908;DHT22;7545;52.092;7.006;2023-02-03T08:49:47;9.10;99.90
14908;DHT22;7545;52.092;7.006;2023-02-03T08:52:14;9.10;99.90
14908;DHT22;7545;52.092;7.006;2023-02-03T08:54:40;9.10;99.90
14908;DHT22;7545;52.092;7.006;2023-02-03T08:57:06;9.10;99.90
14908;DHT22;7545;52.092;7.006;2023-02-03T08:59:33;9.10;99.90
14908;DHT22;7545;52.092;7.006;2023-02-03T09:02:03;9.10;99.90
14908;DHT22;7545;52.092;7.006;2023-02-03T09:04:29;9.10;99.90
14908;DHT22;7545;52.092;7.006;2023-02-03T09:06:54;9.10;99.90
14908;DHT22;7545;52.092;7.006;2023-02-03T09:09:20;9.10;99.90
14908;DHT22;7545;52.092;7.006;2023-02-03T09:11:46;9.10;99.90
14908;DHT22;7545;52.092;7.006;2023-02-03T09:14:12;9.10;99.90
14908;DHT22;7545;52.092;7.006;2023-02-03T09:16:38;9.20;99.90
14908;DHT22;7545;52.092;7.006;2023-02-03T09:19:04;9.20;99.90
14908;DHT22;7545;52.092;7.006;2023-02-03T09:21:30;9.20;99.90
14908;DHT22;7545;52.092;7.006;2023-02-03T09:23:55;9.20;99.90
14908;DHT22;7545;52.092;7.006;2023-02-03T09:26:24;9.20;99.90
14908;DHT22;7545;52.092;7.006;2023-02-03T09:28:51;9.30;99.90
14908;DHT22;7545;52.092;7.006;2023-02-03T09:31:16;9.30;99.90
14908;DHT22;7545;52.092;7.006;2023-02-03T09:33:44;9.40;99.90
14908;DHT22;7545;52.092;7.006;2023-02-03T09:36:10;9.40;99.90
14908;DHT22;7545;52.092;7.006;2023-02-03T09:38:36;9.40;99.90
14908;DHT22;7545;52.092;7.006;2023-02-03T09:42:16;9.40;99.90
14908;DHT22;7545;52.092;7.006;2023-02-03T09:46:39;9.60;99.90
14908;DHT22;7545;52.092;7.006;2023-02-03T09:49:15;9.60;99.90
14908;DHT22;7545;52.092;7.006;2023-02-03T09:51:49;9.60;99.90
14908;DHT22;7545;52.092;7.006;2023-02-03T09:54:25;9.60;99.90
14908;DHT22;7545;52.092;7.006;2023-02-03T09:56:52;9.60;99.90
14908;DHT22;7545;52.092;7.006;2023-02-03T09:59:20;9.70;99.90
14908;DHT22;7545;52.092;7.006;2023-02-03T10:01:56;9.70;99.90
14908;DHT22;7545;52.092;7.006;2023-02-03T10:04:38;9.60;99.90
14908;DHT22;7545;52.092;7.006;2023-02-03T10:17:56;9.70;99.90
14908;DHT22;7545;52.092;7.006;2023-02-03T10:20:30;9.70;99.90
14908;DHT22;7545;52.092;7.006;2023-02-03T10:23:03;9.70;99.90
14908;DHT22;7545;52.092;7.006;2023-02-03T10:25:50;9.70;99.90
14908;DHT22;7545;52.092;7.006;2023-02-03T10:28:21;9.70;99.90
14908;DHT22;7545;52.092;7.006;2023-02-03T10:30:54;9.70;99.90
14908;DHT22;7545;52.092;7.006;2023-02-03T10:33:23;9.80;99.90
14908;DHT22;7545;52.092;7.006;2023-02-03T10:36:19;9.70;99.90
14908;DHT22;7545;52.092;7.006;2023-02-03T10:41:10;9.70;99.90
14908;DHT22;7545;52.092;7.006;2023-02-03T10:43:36;9.70;99.90
14908;DHT22;7545;52.092;7.006;2023-02-03T10:46:28;9.80;99.90
14908;DHT22;7545;52.092;7.006;2023-02-03T10:48:54;9.80;99.90
14908;DHT22;7545;52.092;7.006;2023-02-03T10:51:37;9.80;99.90
14908;DHT22;7545;52.092;7.006;2023-02-03T10:54:04;9.80;99.90
14908;DHT22;7545;52.092;7.006;2023-02-03T10:56:50;9.80;99.90
14908;DHT22;7545;52.092;7.006;2023-02-03T10:59:27;9.80;99.90
14908;DHT22;7545;52.092;7.006;2023-02-03T11:01:53;9.80;99.90
14908;DHT22;7545;52.092;7.006;2023-02-03T11:04:28;9.80;99.90
14908;DHT22;7545;52.092;7.006;2023-02-03T11:07:06;9.80;99.90
14908;DHT22;7545;52.092;7.006;2023-02-03T11:09:46;9.80;99.90
14908;DHT22;7545;52.092;7.006;2023-02-03T11:12:12;9.80;99.90
14908;DHT22;7545;52.092;7.006;2023-02-03T11:14:41;9.80;99.90
14908;DHT22;7545;52.092;7.006;2023-02-03T11:17:17;9.80;99.90
14908;DHT22;7545;52.092;7.006;2023-02-03T11:19:45;9.80;99.90
14908;DHT22;7545;52.092;7.006;2023-02-03T11:22:28;9.70;99.90
14908;DHT22;7545;52.092;7.006;2023-02-03T11:24:54;9.70;99.90
14908;DHT22;7545;52.092;7.006;2023-02-03T11:27:21;9.60;99.90
14908;DHT22;7545;52.092;7.006;2023-02-03T11:29:51;9.50;99.90
14908;DHT22;7545;52.092;7.006;2023-02-03T11:32:37;9.60;99.90
14908;DHT22;7545;52.092;7.006;2023-02-03T11:35:26;9.50;99.90
14908;DHT22;7545;52.092;7.006;2023-02-03T11:37:57;9.50;99.90
14908;DHT22;7545;52.092;7.006;2023-02-03T11:47:59;9.60;99.90
14908;DHT22;7545;52.092;7.006;2023-02-03T12:07:53;9.60;99.90
14908;DHT22;7545;52.092;7.006;2023-02-03T12:18:36;9.60;99.90
14908;DHT22;7545;52.092;7.006;2023-02-03T12:29:26;9.50;99.90
14908;DHT22;7545;52.092;7.006;2023-02-03T12:34:58;9.40;99.90
14908;DHT22;7545;52.092;7.006;2023-02-03T12:42:56;9.30;99.90
14908;DHT22;7545;52.092;7.006;2023-02-03T12:45:30;9.30;99.90
14908;DHT22;7545;52.092;7.006;2023-02-03T12:48:14;9.30;99.90
14908;DHT22;7545;52.092;7.006;2023-02-03T12:50:48;9.30;99.90
14908;DHT22;7545;52.092;7.006;2023-02-03T12:53:25;9.30;99.90
14908;DHT22;7545;52.092;7.006;2023-02-03T12:56:00;9.30;99.90
14908;DHT22;7545;52.092;7.006;2023-02-03T12:58:35;9.30;99.90
14908;DHT22;7545;52.092;7.006;2023-02-03T13:17:44;9.30;99.90
14908;DHT22;7545;52.092;7.006;2023-02-03T13:20:23;9.30;99.90
14908;DHT22;7545;52.092;7.006;2023-02-03T13:22:50;9.30;99.90
14908;DHT22;7545;52.092;7.006;2023-02-03T13:31:17;9.30;99.90
14908;DHT22;7545;52.092;7.006;2023-02-03T13:44:06;9.30;99.90
14908;DHT22;7545;52.092;7.006;2023-02-03T13:46:38;9.30;99.90
14908;DHT22;7545;52.092;7.006;2023-02-03T13:49:03;9.30;99.90
14908;DHT22;7545;52.092;7.006;2023-02-03T13:51:37;9.30;99.90
14908;DHT22;7545;52.092;7.006;2023-02-03T13:54:14;9.30;99.90
14908;DHT22;7545;52.092;7.006;2023-02-03T13:56:41;9.30;99.90
14908;DHT22;7545;52.092;7.006;2023-02-03T14:01:43;9.30;99.90
14908;DHT22;7545;52.092;7.006;2023-02-03T14:09:37;9.30;99.90
14908;DHT22;7545;52.092;7.006;2023-02-03T14:19:58;9.30;99.90
14908;DHT22;7545;52.092;7.006;2023-02-03T14:22:24;9.30;99.90
14908;DHT22;7545;52.092;7.006;2023-02-03T14:24:52;9.30;99.90
14908;DHT22;7545;52.092;7.006;2023-02-03T14:27:28;9.20;99.90
14908;DHT22;7545;52.092;7.006;2023-02-03T14:30:09;9.30;99.90
14908;DHT22;7545;52.092;7.006;2023-02-03T14:33:02;9.20;99.90
14908;DHT22;7545;52.092;7.006;2023-02-03T14:35:32;9.20;99.90
14908;DHT22;7545;52.092;7.006;2023-02-03T14:38:13;9.20;99.90
14908;DHT22;7545;52.092;7.006;2023-02-03T14:40:58;9.30;99.90
14908;DHT22;7545;52.092;7.006;2023-02-03T14:46:37;9.20;99.90
14908;DHT22;7545;52.092;7.006;2023-02-03T14:49:30;9.20;99.90
14908;DHT22;7545;52.092;7.006;2023-02-03T14:55:01;9.20;99.90
14908;DHT22;7545;52.092;7.006;2023-02-03T14:57:40;9.20;99.90
14908;DHT22;7545;52.092;7.006;2023-02-03T15:03:16;9.20;99.90
14908;DHT22;7545;52.092;7.006;2023-02-03T15:05:49;9.20;99.90
14908;DHT22;7545;52.092;7.006;2023-02-03T15:11:30;9.20;99.90
14908;DHT22;7545;52.092;7.006;2023-02-03T15:14:22;9.20;99.90
14908;DHT22;7545;52.092;7.006;2023-02-03T15:16:58;9.20;99.90
14908;DHT22;7545;52.092;7.006;2023-02-03T15:19:28;9.20;99.90
14908;DHT22;7545;52.092;7.006;2023-02-03T15:21:56;9.20;99.90
14908;DHT22;7545;52.092;7.006;2023-02-03T15:24:22;9.20;99.90
14908;DHT22;7545;52.092;7.006;2023-02-03T15:26:54;9.20;99.90
14908;DHT22;7545;52.092;7.006;2023-02-03T15:29:29;9.20;99.90
14908;DHT22;7545;52.092;7.006;2023-02-03T15:32:04;9.20;99.90
14908;DHT22;7545;52.092;7.006;2023-02-03T15:34:42;9.20;99.90
14908;DHT22;7545;52.092;7.006;2023-02-03T15:37:48;9.10;99.90
14908;DHT22;7545;52.092;7.006;2023-02-03T15:40:12;9.20;99.90
14908;DHT22;7545;52.092;7.006;2023-02-03T15:45:37;9.10;99.90
14908;DHT22;7545;52.092;7.006;2023-02-03T15:48:17;9.10;99.90
14908;DHT22;7545;52.092;7.006;2023-02-03T15:50:45;9.10;99.90
14908;DHT22;7545;52.092;7.006;2023-02-03T15:55:46;9.10;99.90
14908;DHT22;7545;52.092;7.006;2023-02-03T15:58:27;9.00;99.90
14908;DHT22;7545;52.092;7.006;2023-02-03T16:00:57;9.00;99.90
14908;DHT22;7545;52.092;7.006;2023-02-03T16:03:53;9.00;99.90
14908;DHT22;7545;52.092;7.006;2023-02-03T16:06:32;9.00;99.90
14908;DHT22;7545;52.092;7.006;2023-02-03T16:09:47;9.00;99.90
14908;DHT22;7545;52.092;7.006;2023-02-03T16:12:17;9.00;99.90
14908;DHT22;7545;52.092;7.006;2023-02-03T16:14:46;9.00;99.90
14908;DHT22;7545;52.092;7.006;2023-02-03T16:25:27;8.90;99.90
14908;DHT22;7545;52.092;7.006;2023-02-03T16:31:09;8.90;99.90
14908;DHT22;7545;52.092;7.006;2023-02-03T16:33:55;8.80;99.90
14908;DHT22;7545;52.092;7.006;2023-02-03T16:36:41;8.80;99.90
14908;DHT22;7545;52.092;7.006;2023-02-03T16:39:25;8.80;99.90
14908;DHT22;7545;52.092;7.006;2023-02-03T16:42:15;8.70;99.90
14908;DHT22;7545;52.092;7.006;2023-02-03T16:45:00;8.70;99.90
14908;DHT22;7545;52.092;7.006;2023-02-03T16:47:45;8.70;99.90
14908;DHT22;7545;52.092;7.006;2023-02-03T16:50:30;8.60;99.90
14908;DHT22;7545;52.092;7.006;2023-02-03T16:53:20;8.60;99.90
14908;DHT22;7545;52.092;7.006;2023-02-03T16:55:47;8.60;99.90
14908;DHT22;7545;52.092;7.006;2023-02-03T16:58:13;8.60;99.90
14908;DHT22;7545;52.092;7.006;2023-02-03T17:00:40;8.60;99.90
14908;DHT22;7545;52.092;7.006;2023-02-03T17:03:11;8.60;99.90
14908;DHT22;7545;52.092;7.006;2023-02-03T17:05:42;8.60;99.90
14908;DHT22;7545;52.092;7.006;2023-02-03T17:08:08;8.60;99.90
14908;DHT22;7545;52.092;7.006;2023-02-03T17:10:35;8.60;99.90
14908;DHT22;7545;52.092;7.006;2023-02-03T17:13:01;8.50;99.90
14908;DHT22;7545;52.092;7.006;2023-02-03T17:15:27;8.50;99.90
14908;DHT22;7545;52.092;7.006;2023-02-03T17:17:53;8.60;99.90
14908;DHT22;7545;52.092;7.006;2023-02-03T17:20:19;8.60;99.90
14908;DHT22;7545;52.092;7.006;2023-02-03T17:22:45;8.50;99.90
14908;DHT22;7545;52.092;7.006;2023-02-03T17:25:10;8.50;99.90
14908;DHT22;7545;52.092;7.006;2023-02-03T17:27:36;8.50;99.90
14908;DHT22;7545;52.092;7.006;2023-02-03T17:30:02;8.50;99.90
14908;DHT22;7545;52.092;7.006;2023-02-03T17:32:28;8.50;99.90
14908;DHT22;7545;52.092;7.006;2023-02-03T17:34:53;8.50;99.90
14908;DHT22;7545;52.092;7.006;2023-02-03T17:37:19;8.50;99.90
14908;DHT22;7545;52.092;7.006;2023-02-03T17:39:45;8.50;99.90
14908;DHT22;7545;52.092;7.006;2023-02-03T17:42:10;8.50;99.90
14908;DHT22;7545;52.092;7.006;2023-02-03T17:44:36;8.50;99.90
14908;DHT22;7545;52.092;7.006;2023-02-03T17:47:02;8.50;99.90
14908;DHT22;7545;52.092;7.006;2023-02-03T17:49:28;8.50;99.90
14908;DHT22;7545;52.092;7.006;2023-02-03T17:51:53;8.50;99.90
14908;DHT22;7545;52.092;7.006;2023-02-03T17:54:19;8.40;99.90
14908;DHT22;7545;52.092;7.006;2023-02-03T17:56:45;8.50;99.90
14908;DHT22;7545;52.092;7.006;2023-02-03T17:59:13;8.50;99.90
14908;DHT22;7545;52.092;7.006;2023-02-03T18:01:38;8.50;99.90
14908;DHT22;7545;52.092;7.006;2023-02-03T18:04:05;8.50;99.90
14908;DHT22;7545;52.092;7.006;2023-02-03T18:06:31;8.40;99.90
14908;DHT22;7545;52.092;7.006;2023-02-03T18:09:03;8.40;99.90
14908;DHT22;7545;52.092;7.006;2023-02-03T18:11:30;8.40;99.90
14908;DHT22;7545;52.092;7.006;2023-02-03T18:13:56;8.30;99.90
14908;DHT22;7545;52.092;7.006;2023-02-03T18:16:24;8.30;99.90
14908;DHT22;7545;52.092;7.006;2023-02-03T18:18:51;8.30;99.90
14908;DHT22;7545;52.092;7.006;2023-02-03T18:21:18;8.30;99.90
14908;DHT22;7545;52.092;7.006;2023-02-03T18:23:44;8.30;99.90
14908;DHT22;7545;52.092;7.006;2023-02-03T18:26:11;8.30;99.90
14908;DHT22;7545;52.092;7.006;2023-02-03T18:28:39;8.30;99.90
14908;DHT22;7545;52.092;7.006;2023-02-03T18:31:07;8.20;99.90
14908;DHT22;7545;52.092;7.006;2023-02-03T18:33:34;8.20;99.90
14908;DHT22;7545;52.092;7.006;2023-02-03T18:36:00;8.30;99.90
14908;DHT22;7545;52.092;7.006;2023-02-03T18:38:27;8.20;99.90
14908;DHT22;7545;52.092;7.006;2023-02-03T18:40:54;8.20;99.90
14908;DHT22;7545;52.092;7.006;2023-02-03T18:43:21;8.20;99.90
14908;DHT22;7545;52.092;7.006;2023-02-03T18:45:46;8.20;99.90
14908;DHT22;7545;52.092;7.006;2023-02-03T18:48:12;8.20;99.90
14908;DHT22;7545;52.092;7.006;2023-02-03T18:50:42;8.20;99.90
14908;DHT22;7545;52.092;7.006;2023-02-03T18:53:08;8.10;99.90
14908;DHT22;7545;52.092;7.006;2023-02-03T18:55:38;8.10;99.90
14908;DHT22;7545;52.092;7.006;2023-02-03T18:58:04;8.10;99.90
14908;DHT22;7545;52.092;7.006;2023-02-03T19:00:30;8.10;99.90
14908;DHT22;7545;52.092;7.006;2023-02-03T19:02:55;8.10;99.90
14908;DHT22;7545;52.092;7.006;2023-02-03T19:05:21;8.10;99.90
14908;DHT22;7545;52.092;7.006;2023-02-03T19:07:47;8.10;99.90
14908;DHT22;7545;52.092;7.006;2023-02-03T19:10:12;8.10;99.90
14908;DHT22;7545;52.092;7.006;2023-02-03T19:12:38;8.00;99.90
14908;DHT22;7545;52.092;7.006;2023-02-03T19:15:04;8.10;99.90
14908;DHT22;7545;52.092;7.006;2023-02-03T19:17:30;8.10;99.90